Time;durP1;ratioP1;P1;durP2;ratioP2;P2;SDS_P1;SDS_P2;PMS_P1;PMS_P2;Temp;Humidity;BMP_temperature;BMP_pressure;BME280_temperature;BME280_humidity;BME280_pressure;Samples;Min_cycle;Max_cycle;Signal;HPM_P1;HPM_P2
2023/07/30 00:01:25;;;;;;;8.52;4.65;;;;;;;17.71;100.00;98442.06;5051876;28;20068;-77
2023/07/30 00:03:51;;;;;;;8.38;4.55;;;;;;;17.72;100.00;98443.72;5031321;28;20033;-75
2023/07/30 00:06:16;;;;;;;8.95;4.28;;;;;;;17.62;100.00;98440.88;5051881;28;20406;-76
2023/07/30 00:08:41;;;;;;;6.25;3.75;;;;;;;17.64;100.00;98455.13;5051897;28;20029;-77
2023/07/30 00:11:06;;;;;;;6.03;3.50;;;;;;;17.64;100.00;98459.78;5043948;28;20154;-77
2023/07/30 00:13:32;;;;;;;6.97;3.67;;;;;;;17.53;100.00;98464.31;5033285;28;20025;-76
2023/07/30 00:15:57;;;;;;;5.13;2.97;;;;;;;17.45;100.00;98464.78;5030130;28;20033;-76
2023/07/30 00:18:22;;;;;;;4.05;1.95;;;;;;;17.24;100.00;98448.13;5041802;28;20018;-76
2023/07/30 00:20:48;;;;;;;3.28;1.77;;;;;;;17.15;100.00;98467.97;5032358;28;20127;-76
2023/07/30 00:23:13;;;;;;;4.78;2.30;;;;;;;17.15;100.00;98467.97;5033264;28;20033;-76
2023/07/30 00:25:38;;;;;;;3.35;2.35;;;;;;;17.16;100.00;98477.81;5039468;28;20017;-76
2023/07/30 00:28:04;;;;;;;5.50;2.40;;;;;;;17.15;100.00;98487.09;5052193;28;20048;-76
2023/07/30 00:30:29;;;;;;;3.30;1.92;;;;;;;17.12;100.00;98491.16;5050227;28;20544;-76
2023/07/30 00:32:54;;;;;;;3.92;2.00;;;;;;;17.04;100.00;98484.22;5051057;28;20028;-77
2023/07/30 00:35:20;;;;;;;3.17;1.83;;;;;;;17.04;100.00;98495.16;5046076;28;20512;-76
2023/07/30 00:37:45;;;;;;;2.92;1.60;;;;;;;16.94;100.00;98488.72;5050033;28;20482;-76
2023/07/30 00:40:11;;;;;;;5.38;1.92;;;;;;;16.96;100.00;98501.06;5044171;28;20112;-77
2023/07/30 00:42:36;;;;;;;2.83;1.52;;;;;;;16.92;100.00;98510.84;5051002;28;20509;-76
2023/07/30 00:45:03;;;;;;;4.18;1.95;;;;;;;16.93;100.00;98500.75;5053347;28;20040;-75
2023/07/30 00:47:28;;;;;;;2.97;1.73;;;;;;;16.97;100.00;98507.34;5055954;28;20035;-76
2023/07/30 00:49:54;;;;;;;2.40;1.58;;;;;;;16.91;100.00;98502.91;5055310;28;20033;-76
2023/07/30 00:52:21;;;;;;;4.38;1.75;;;;;;;16.90;100.00;98514.91;5047312;28;20021;-78
2023/07/30 00:54:48;;;;;;;2.72;1.73;;;;;;;16.80;100.00;98519.16;5055010;28;20630;-76
2023/07/30 00:57:15;;;;;;;4.63;1.55;;;;;;;16.89;100.00;98521.44;5037918;28;20033;-75
2023/07/30 00:59:40;;;;;;;4.15;2.08;;;;;;;16.81;100.00;98518.06;5054276;28;20438;-76
2023/07/30 01:02:06;;;;;;;2.83;1.60;;;;;;;16.92;100.00;98531.88;5051798;28;20047;-77
2023/07/30 01:04:32;;;;;;;3.10;1.80;;;;;;;16.95;100.00;98532.22;5053936;28;20029;-77
2023/07/30 01:06:57;;;;;;;4.15;2.00;;;;;;;16.90;100.00;98528.56;5029228;28;20027;-76
2023/07/30 01:09:23;;;;;;;2.42;1.27;;;;;;;16.86;100.00;98529.06;5049125;28;20033;-76
2023/07/30 01:11:49;;;;;;;2.60;1.52;;;;;;;16.82;100.00;98538.84;5049352;28;20442;-76
2023/07/30 01:14:15;;;;;;;4.05;1.60;;;;;;;16.84;100.00;98528.47;5047290;28;20029;-77
2023/07/30 01:16:41;;;;;;;3.40;1.88;;;;;;;16.94;100.00;98532.47;5051069;28;20043;-75
2023/07/30 01:19:07;;;;;;;3.80;2.10;;;;;;;16.96;100.00;98527.56;5051417;28;20069;-76
2023/07/30 01:21:36;;;;;;;4.03;1.90;;;;;;;17.01;100.00;98524.91;5050944;28;20079;-76
2023/07/30 01:24:01;;;;;;;3.70;2.30;;;;;;;16.96;100.00;98511.19;5032905;28;20036;-76
2023/07/30 01:26:53;;;;;;;6.13;2.25;;;;;;;16.91;100.00;98505.63;5029269;28;20029;-76
2023/07/30 01:29:24;;;;;;;4.05;1.98;;;;;;;16.99;100.00;98519.69;5055784;28;20062;-77
2023/07/30 01:31:56;;;;;;;3.58;2.20;;;;;;;17.07;100.00;98518.44;5055478;28;20029;-76
2023/07/30 01:34:27;;;;;;;6.05;2.38;;;;;;;17.08;100.00;98531.00;5051466;28;20017;-76
2023/07/30 01:36:54;;;;;;;4.40;2.53;;;;;;;17.12;100.00;98531.34;5025634;28;20100;-77
2023/07/30 01:39:20;;;;;;;5.20;2.42;;;;;;;16.98;100.00;98509.03;5050019;28;20021;-77
2023/07/30 01:41:45;;;;;;;3.78;2.10;;;;;;;17.09;100.00;98522.56;5048087;28;20025;-76
2023/07/30 01:44:11;;;;;;;3.08;2.08;;;;;;;17.08;100.00;98520.06;5055362;28;20051;-76
2023/07/30 01:46:36;;;;;;;3.80;2.20;;;;;;;17.19;100.00;98534.72;5036376;28;20028;-76
2023/07/30 01:49:01;;;;;;;4.40;2.00;;;;;;;17.10;100.00;98528.84;5021918;28;20037;-76
2023/07/30 01:51:27;;;;;;;7.53;1.90;;;;;;;17.10;100.00;98542.50;5040056;28;20037;-76
2023/07/30 01:53:52;;;;;;;5.60;1.95;;;;;;;17.03;100.00;98528.22;5046453;28;20025;-77
2023/07/30 01:56:17;;;;;;;5.07;2.67;;;;;;;17.07;100.00;98526.63;5046740;28;20029;-75
2023/07/30 01:58:43;;;;;;;3.72;2.08;;;;;;;17.12;100.00;98537.63;5034939;28;20466;-76
2023/07/30 02:01:08;;;;;;;4.25;2.05;;;;;;;17.20;100.00;98542.66;5054376;28;20477;-76
2023/07/30 02:03:34;;;;;;;4.53;1.75;;;;;;;17.10;100.00;98539.78;5051401;28;20057;-76
2023/07/30 02:05:59;;;;;;;3.90;1.80;;;;;;;17.12;100.00;98540.38;5034699;28;20018;-77
2023/07/30 02:08:24;;;;;;;4.10;2.53;;;;;;;17.06;100.00;98541.38;5037879;28;20108;-76
2023/07/30 02:10:59;;;;;;;4.72;2.20;;;;;;;17.07;100.00;98538.38;5056994;28;20108;-77
2023/07/30 02:13:25;;;;;;;3.78;1.70;;;;;;;17.00;100.00;98534.16;5028071;28;20036;-78
2023/07/30 02:15:51;;;;;;;6.13;2.50;;;;;;;16.97;100.00;98529.22;5035037;28;20444;-77
2023/07/30 02:18:17;;;;;;;7.18;2.42;;;;;;;16.99;100.00;98535.25;5052044;28;20029;-80
2023/07/30 02:20:42;;;;;;;7.68;2.30;;;;;;;16.98;100.00;98520.78;5049330;28;20044;-76
2023/07/30 02:23:08;;;;;;;3.33;1.95;;;;;;;16.94;100.00;98529.72;5045557;28;20017;-77
2023/07/30 02:25:34;;;;;;;4.88;2.20;;;;;;;16.90;100.00;98518.47;5045282;28;20471;-76
2023/07/30 02:28:00;;;;;;;6.68;2.13;;;;;;;16.89;100.00;98525.00;5016514;28;20028;-77
2023/07/30 02:30:26;;;;;;;4.50;1.77;;;;;;;16.91;100.00;98530.22;5034337;28;20316;-76
2023/07/30 02:32:51;;;;;;;3.92;1.55;;;;;;;16.95;100.00;98532.22;5034319;28;20075;-76
2023/07/30 02:35:16;;;;;;;4.90;1.70;;;;;;;16.79;100.00;98512.03;5045966;28;20029;-76
2023/07/30 02:37:42;;;;;;;7.35;1.45;;;;;;;16.93;100.00;98530.81;5037926;28;20078;-76
2023/07/30 02:40:08;;;;;;;6.35;1.83;;;;;;;16.97;100.00;98537.41;5053047;28;20463;-76
2023/07/30 02:42:33;;;;;;;5.75;2.00;;;;;;;16.91;100.00;98511.09;5045632;28;20037;-76
2023/07/30 02:44:58;;;;;;;3.28;1.90;;;;;;;16.94;100.00;98530.53;5037437;28;20108;-76
2023/07/30 02:47:24;;;;;;;3.67;1.90;;;;;;;16.98;100.00;98531.72;5045422;28;20041;-77
2023/07/30 02:49:50;;;;;;;3.05;1.98;;;;;;;17.05;100.00;98536.97;5032730;28;20394;-76
2023/07/30 02:52:15;;;;;;;5.30;2.10;;;;;;;17.01;100.00;98533.13;5016202;28;20029;-76
2023/07/30 02:54:40;;;;;;;3.47;1.85;;;;;;;17.02;100.00;98532.84;5040221;28;20032;-77
2023/07/30 02:57:06;;;;;;;3.53;1.83;;;;;;;17.01;100.00;98542.13;5053077;28;20419;-76
2023/07/30 02:59:31;;;;;;;4.32;1.70;;;;;;;17.07;100.00;98545.75;5053094;28;20028;-75
2023/07/30 03:01:56;;;;;;;6.00;1.70;;;;;;;16.97;100.00;98535.50;5035352;28;20025;-76
2023/07/30 03:04:22;;;;;;;4.07;2.03;;;;;;;17.00;100.00;98539.63;5052641;28;20421;-75
2023/07/30 03:06:47;;;;;;;3.15;1.95;;;;;;;17.04;100.00;98551.75;5034980;28;20215;-76
2023/07/30 03:09:12;;;;;;;4.35;1.80;;;;;;;17.03;100.00;98555.56;5065141;28;20119;-76
2023/07/30 03:11:38;;;;;;;3.90;1.92;;;;;;;17.02;100.00;98554.72;5053618;28;20055;-76
2023/07/30 03:14:03;;;;;;;5.72;1.88;;;;;;;16.98;100.00;98537.19;5054883;28;20104;-76
2023/07/30 03:16:28;;;;;;;6.63;2.63;;;;;;;17.00;100.00;98547.84;5058515;28;20047;-77
2023/07/30 03:18:54;;;;;;;4.13;2.28;;;;;;;17.00;100.00;98545.97;5054478;28;20033;-75
2023/07/30 03:21:19;;;;;;;3.00;1.88;;;;;;;16.95;100.00;98532.22;5057651;28;20510;-76
2023/07/30 03:23:44;;;;;;;7.38;2.35;;;;;;;16.99;100.00;98533.34;5053539;28;20021;-75
2023/07/30 03:26:10;;;;;;;6.55;1.90;;;;;;;16.93;100.00;98533.53;5039003;28;20433;-76
2023/07/30 03:28:36;;;;;;;3.25;2.35;;;;;;;16.92;100.00;98537.34;5036574;28;20068;-76
2023/07/30 03:31:01;;;;;;;3.90;2.00;;;;;;;16.88;100.00;98530.75;5058841;28;20025;-76
2023/07/30 03:33:26;;;;;;;7.40;1.80;;;;;;;16.85;100.00;98529.34;5056446;28;20029;-76
2023/07/30 03:35:52;;;;;;;4.50;2.38;;;;;;;16.82;100.00;98536.13;5067348;28;20017;-76
2023/07/30 03:38:17;;;;;;;4.72;2.15;;;;;;;16.93;100.00;98549.94;5024359;28;20482;-78
2023/07/30 03:40:42;;;;;;;3.10;2.00;;;;;;;16.93;100.00;98549.94;5052930;28;20390;-76
2023/07/30 03:43:08;;;;;;;4.05;1.65;;;;;;;16.84;100.00;98547.59;5036938;28;20021;-75
2023/07/30 03:45:33;;;;;;;5.70;2.03;;;;;;;16.91;100.00;98546.63;5053296;28;20021;-76
2023/07/30 03:47:58;;;;;;;3.85;1.85;;;;;;;16.89;100.00;98538.66;5054996;28;20449;-75
2023/07/30 03:50:24;;;;;;;3.55;2.22;;;;;;;16.90;100.00;98555.88;5055469;28;20102;-74
2023/07/30 03:52:49;;;;;;;7.18;2.70;;;;;;;16.83;100.00;98545.97;5025823;28;20056;-76
2023/07/30 03:55:15;;;;;;;3.97;2.40;;;;;;;16.89;100.00;98565.16;5038538;28;20368;-75
2023/07/30 03:57:40;;;;;;;3.30;2.20;;;;;;;16.90;100.00;98569.53;5034564;28;20063;-76
2023/07/30 04:00:06;;;;;;;6.63;2.20;;;;;;;16.91;100.00;98568.50;5037735;28;20437;-75
2023/07/30 04:02:31;;;;;;;3.80;1.80;;;;;;;16.98;100.00;98580.09;5046501;28;20017;-76
2023/07/30 04:04:57;;;;;;;5.35;2.20;;;;;;;16.93;100.00;98571.81;5045432;28;20029;-76
2023/07/30 04:07:22;;;;;;;8.30;2.33;;;;;;;16.92;100.00;98578.31;5051431;28;20020;-76
2023/07/30 04:09:47;;;;;;;7.70;2.28;;;;;;;16.96;100.00;98577.59;5034151;28;20488;-76
2023/07/30 04:12:13;;;;;;;5.70;2.40;;;;;;;16.93;100.00;98590.94;5042249;28;20051;-75
2023/07/30 04:14:38;;;;;;;7.85;2.08;;;;;;;16.95;100.00;98586.03;5022979;28;20020;-76
2023/07/30 04:17:03;;;;;;;3.30;2.00;;;;;;;17.00;100.00;98583.38;5059004;28;20382;-74
2023/07/30 04:19:29;;;;;;;6.57;2.50;;;;;;;16.99;100.00;98577.06;5047727;28;20051;-76
2023/07/30 04:21:54;;;;;;;6.35;2.17;;;;;;;17.03;100.00;98580.97;5033787;28;20489;-77
2023/07/30 04:24:19;;;;;;;4.53;2.40;;;;;;;17.04;100.00;98568.97;5044486;28;20025;-75
2023/07/30 04:26:45;;;;;;;7.88;2.10;;;;;;;17.07;100.00;98584.03;5050840;28;20020;-76
2023/07/30 04:29:10;;;;;;;3.00;2.10;;;;;;;17.14;100.00;98584.69;5042658;28;20034;-78
2023/07/30 04:31:35;;;;;;;2.42;1.70;;;;;;;17.12;100.00;98559.50;5025581;28;20032;-76
2023/07/30 04:34:01;;;;;;;2.97;1.90;;;;;;;17.18;100.00;98571.31;5046970;28;20070;-75
2023/07/30 04:36:26;;;;;;;2.40;1.75;;;;;;;17.22;100.00;98576.06;5051306;28;20025;-76
2023/07/30 04:38:52;;;;;;;6.35;2.10;;;;;;;17.30;100.00;98585.72;5022781;28;20067;-75
2023/07/30 04:41:18;;;;;;;3.60;2.05;;;;;;;17.22;100.00;98586.97;5047672;28;20431;-76
2023/07/30 04:43:43;;;;;;;5.13;2.03;;;;;;;17.20;100.00;98594.59;5044643;28;20029;-76
2023/07/30 04:46:09;;;;;;;3.20;1.80;;;;;;;17.21;100.00;98581.75;5052318;28;20025;-75
2023/07/30 04:48:34;;;;;;;8.80;2.20;;;;;;;17.21;100.00;98579.88;5050991;28;20028;-76
2023/07/30 04:50:59;;;;;;;3.15;2.03;;;;;;;17.22;100.00;98586.16;5026013;28;20032;-76
2023/07/30 04:53:25;;;;;;;4.22;2.00;;;;;;;17.29;100.00;98584.91;5052471;28;20025;-75
2023/07/30 04:55:57;;;;;;;3.15;2.05;;;;;;;17.43;100.00;98587.28;5046092;28;20056;-76
2023/07/30 04:58:23;;;;;;;4.03;1.92;;;;;;;17.65;100.00;98587.25;5040159;28;20032;-76
2023/07/30 05:00:49;;;;;;;4.63;1.60;;;;;;;17.93;100.00;98589.00;5021692;28;20471;-75
2023/07/30 05:03:15;;;;;;;3.08;1.45;;;;;;;18.00;100.00;98589.63;5022675;28;20472;-77
2023/07/30 05:05:40;;;;;;;2.50;1.55;;;;;;;18.42;100.00;98594.44;5046630;28;20033;-77
2023/07/30 05:08:06;;;;;;;4.30;1.40;;;;;;;18.52;100.00;98586.31;5037759;28;20021;-77
2023/07/30 05:10:31;;;;;;;3.83;1.52;;;;;;;18.62;100.00;98594.59;5017475;28;20027;-76
2023/07/30 05:12:56;;;;;;;3.15;1.60;;;;;;;18.41;100.00;98584.56;5044210;28;20041;-75
2023/07/30 05:15:22;;;;;;;2.17;1.50;;;;;;;18.30;100.00;98586.38;5014336;28;20108;-76
2023/07/30 05:17:47;;;;;;;2.30;1.55;;;;;;;18.15;100.00;98578.00;5014870;28;20026;-76
2023/07/30 05:20:12;;;;;;;5.68;1.60;;;;;;;17.94;100.00;98576.97;5043128;28;20080;-76
2023/07/30 05:22:37;;;;;;;3.40;1.30;;;;;;;17.82;100.00;98576.28;5032279;28;20032;-75
2023/07/30 05:25:03;;;;;;;2.55;1.65;;;;;;;17.80;100.00;98589.41;5045014;28;20098;-76
2023/07/30 05:27:31;;;;;;;3.50;1.30;;;;;;;17.70;100.00;98590.88;5016864;28;20032;-76
2023/07/30 05:29:56;;;;;;;2.35;1.63;;;;;;;17.58;100.00;98592.09;5044404;28;20054;-75
2023/07/30 05:32:21;;;;;;;5.43;1.90;;;;;;;17.48;100.00;98590.91;5053952;28;20025;-74
2023/07/30 05:34:47;;;;;;;2.05;1.50;;;;;;;17.52;100.00;98602.97;5035308;28;20030;-75
2023/07/30 05:37:12;;;;;;;2.50;1.88;;;;;;;17.54;100.00;98605.47;5053970;28;20017;-76
2023/07/30 05:39:37;;;;;;;5.68;1.85;;;;;;;17.42;100.00;98599.28;5045017;28;20530;-75
2023/07/30 05:42:03;;;;;;;3.63;2.13;;;;;;;17.34;100.00;98591.50;5053534;28;20028;-75
2023/07/30 05:44:28;;;;;;;4.10;2.00;;;;;;;17.37;100.00;98597.31;5049776;28;20375;-77
2023/07/30 05:46:53;;;;;;;6.68;2.88;;;;;;;17.37;100.00;98591.00;5053019;28;20039;-75
2023/07/30 05:49:19;;;;;;;4.45;2.45;;;;;;;17.43;100.00;98604.50;5036883;28;20036;-75
2023/07/30 05:51:44;;;;;;;5.20;2.50;;;;;;;17.47;100.00;98611.09;5046462;28;20386;-75
2023/07/30 05:54:10;;;;;;;3.22;2.03;;;;;;;17.50;100.00;98596.09;5051241;28;20079;-77
2023/07/30 05:56:35;;;;;;;3.83;2.35;;;;;;;17.60;100.00;98590.75;5051944;22;20041;-75
2023/07/30 05:59:01;;;;;;;3.28;2.08;;;;;;;17.65;100.00;98600.94;5058910;28;20030;-75
2023/07/30 06:01:26;;;;;;;4.53;1.90;;;;;;;17.61;100.00;98588.88;5081926;28;20021;-75
2023/07/30 06:03:51;;;;;;;5.28;2.00;;;;;;;17.60;100.00;98598.16;5088041;28;20029;-75
2023/07/30 06:06:17;;;;;;;3.38;1.70;;;;;;;17.71;100.00;98605.38;5081188;28;20040;-75
2023/07/30 06:08:42;;;;;;;3.22;1.80;;;;;;;17.79;100.00;98618.69;5064579;28;20033;-76
2023/07/30 06:11:07;;;;;;;2.78;1.60;;;;;;;17.67;100.00;98616.03;5067078;28;20156;-73
2023/07/30 06:13:33;;;;;;;2.10;1.50;;;;;;;17.80;100.00;98617.59;5072642;28;20068;-77
2023/07/30 06:15:58;;;;;;;2.80;1.45;;;;;;;17.75;100.00;98612.03;5074006;28;20033;-79
2023/07/30 06:18:23;;;;;;;2.47;1.58;;;;;;;17.90;100.00;98600.47;5075716;28;20013;-76
2023/07/30 06:20:49;;;;;;;1.85;1.52;;;;;;;17.95;100.00;98623.25;5090169;28;20029;-77
2023/07/30 06:23:14;;;;;;;3.03;1.40;;;;;;;17.95;100.00;98601.34;5085109;28;20011;-77
2023/07/30 06:25:39;;;;;;;1.83;1.27;;;;;;;18.13;100.00;98586.50;5067472;28;20085;-74
2023/07/30 06:28:05;;;;;;;1.90;1.10;;;;;;;18.34;100.00;98587.53;5066052;28;20055;-78
2023/07/30 06:30:32;;;;;;;5.03;1.00;;;;;;;18.28;100.00;98595.94;5068984;28;20021;-79
2023/07/30 06:32:57;;;;;;;2.08;1.40;;;;;;;18.35;100.00;98604.78;5077985;28;20027;-77
2023/07/30 06:35:23;;;;;;;1.77;1.00;;;;;;;18.24;100.00;98584.69;5078570;28;20017;-76
2023/07/30 06:37:50;;;;;;;6.00;1.02;;;;;;;18.26;100.00;98607.16;5059351;28;20382;-74
2023/07/30 06:40:15;;;;;;;2.65;1.30;;;;;;;18.70;100.00;98612.50;5061327;28;20040;-76
2023/07/30 06:42:41;;;;;;;2.85;1.10;;;;;;;18.70;100.00;98598.78;5057854;28;20021;-77
2023/07/30 06:45:07;;;;;;;2.17;1.13;;;;;;;18.53;100.00;98587.97;5053585;28;20020;-77
2023/07/30 06:47:32;;;;;;;1.92;1.17;;;;;;;18.56;100.00;98587.44;5059134;28;20028;-76
2023/07/30 06:49:57;;;;;;;1.73;1.00;;;;;;;18.91;100.00;98602.53;5060419;28;20051;-72
2023/07/30 06:52:23;;;;;;;2.30;0.88;;;;;;;19.21;100.00;98590.16;5068190;28;20466;-73
2023/07/30 06:54:48;;;;;;;2.25;1.00;;;;;;;19.63;100.00;98589.28;5053237;28;20108;-73
2023/07/30 06:57:13;;;;;;;2.38;1.10;;;;;;;19.67;100.00;98588.47;5054688;28;20530;-72
2023/07/30 06:59:39;;;;;;;4.85;0.93;;;;;;;19.59;100.00;98582.66;5053423;28;20036;-72
2023/07/30 07:02:05;;;;;;;1.88;0.90;;;;;;;19.64;100.00;98589.00;5057213;28;20056;-75
2023/07/30 07:04:31;;;;;;;1.35;0.85;;;;;;;20.10;100.00;98569.97;5045721;28;20032;-78
2023/07/30 07:06:56;;;;;;;1.25;0.80;;;;;;;20.59;100.00;98554.94;5057907;28;20029;-75
2023/07/30 07:09:21;;;;;;;1.27;0.80;;;;;;;20.56;100.00;98550.00;5038203;28;20036;-74
2023/07/30 07:11:47;;;;;;;1.70;0.80;;;;;;;20.40;100.00;98551.06;5066951;28;20385;-75
2023/07/30 07:14:12;;;;;;;2.50;1.15;;;;;;;20.22;100.00;98566.13;5061781;28;20094;-73
2023/07/30 07:16:37;;;;;;;2.25;0.90;;;;;;;19.79;100.00;98569.06;5063573;28;20516;-71
2023/07/30 07:19:03;;;;;;;1.77;0.80;;;;;;;19.48;100.00;98577.13;5060092;28;20025;-76
2023/07/30 07:21:28;;;;;;;1.25;0.80;;;;;;;19.37;100.00;98589.16;5072286;28;20025;-74
2023/07/30 07:23:53;;;;;;;1.35;1.10;;;;;;;19.22;100.00;98589.88;5062661;28;20037;-74
2023/07/30 07:26:19;;;;;;;3.33;1.17;;;;;;;19.03;100.00;98608.69;5052209;28;20025;-73
2023/07/30 07:28:44;;;;;;;1.05;0.82;;;;;;;19.09;100.00;98598.56;5053259;28;20035;-74
2023/07/30 07:31:09;;;;;;;1.45;1.10;;;;;;;19.04;100.00;98607.56;5057481;28;20021;-74
2023/07/30 07:33:35;;;;;;;3.60;1.30;;;;;;;19.04;100.00;98607.56;5058817;28;20020;-74
2023/07/30 07:36:05;;;;;;;2.42;1.00;;;;;;;18.82;100.00;98604.13;5052447;28;20024;-75
2023/07/30 07:38:31;;;;;;;2.92;0.90;;;;;;;18.81;100.00;98596.97;5054918;28;20044;-76
2023/07/30 07:40:56;;;;;;;2.05;0.80;;;;;;;19.01;100.00;98619.06;5053144;28;20079;-75
2023/07/30 07:43:22;;;;;;;1.10;1.00;;;;;;;18.99;100.00;98614.94;5053483;28;20076;-77
2023/07/30 07:45:47;;;;;;;2.05;1.20;;;;;;;18.71;100.00;98627.03;5053704;28;20501;-71
2023/07/30 07:48:12;;;;;;;2.85;1.25;;;;;;;18.46;100.00;98633.91;5060927;28;20025;-71
2023/07/30 07:50:38;;;;;;;1.58;1.02;;;;;;;18.26;100.00;98644.66;5035934;28;20027;-72
2023/07/30 07:53:03;;;;;;;2.63;1.30;;;;;;;18.35;100.00;98659.56;5052270;28;20048;-71
2023/07/30 07:55:28;;;;;;;2.00;1.08;;;;;;;18.31;100.00;98674.84;5052060;28;20466;-72
2023/07/30 07:57:53;;;;;;;1.42;1.10;;;;;;;18.17;100.00;98675.25;5058465;28;20046;-71
2023/07/30 08:00:19;;;;;;;1.30;1.00;;;;;;;17.94;100.00;98670.84;5059883;28;20025;-70
2023/07/30 08:02:44;;;;;;;1.80;1.30;;;;;;;17.75;100.00;98680.44;5054288;28;20501;-76
2023/07/30 08:05:10;;;;;;;2.08;1.38;;;;;;;17.88;100.00;98673.78;5059631;28;20536;-76
2023/07/30 08:07:35;;;;;;;1.58;1.10;;;;;;;17.87;100.00;98697.59;5043754;28;20440;-77
2023/07/30 08:10:00;;;;;;;2.80;1.20;;;;;;;17.65;100.00;98699.44;5042850;28;20055;-71
2023/07/30 08:12:26;;;;;;;2.42;1.08;;;;;;;17.66;100.00;98701.94;5049517;28;20622;-70
2023/07/30 08:14:51;;;;;;;8.52;1.50;;;;;;;17.50;100.00;98691.81;5056126;28;20028;-71
2023/07/30 08:17:16;;;;;;;2.33;1.58;;;;;;;17.57;100.00;98699.88;5055607;28;20032;-71
2023/07/30 08:19:42;;;;;;;2.15;1.55;;;;;;;17.62;100.00;98692.56;5052252;28;20071;-71
2023/07/30 08:22:07;;;;;;;2.22;1.58;;;;;;;17.69;100.00;98690.47;5053671;28;20052;-74
2023/07/30 08:24:32;;;;;;;4.40;1.52;;;;;;;17.89;100.00;98702.81;5043557;28;20021;-75
2023/07/30 08:26:58;;;;;;;3.13;1.85;;;;;;;18.04;100.00;98686.59;5046287;28;20052;-76
2023/07/30 08:29:23;;;;;;;2.28;1.27;;;;;;;18.04;100.00;98697.53;5046428;28;20039;-75
2023/07/30 08:31:49;;;;;;;1.92;1.35;;;;;;;18.16;100.00;98694.69;5053010;28;20445;-74
2023/07/30 08:34:14;;;;;;;3.15;1.40;;;;;;;18.38;100.00;98691.91;5051668;28;20017;-74
2023/07/30 08:36:40;;;;;;;4.55;1.80;;;;;;;18.50;100.00;98694.53;5057278;28;20421;-76
2023/07/30 08:39:05;;;;;;;2.17;1.27;;;;;;;18.73;100.00;98674.19;5060594;28;20035;-74
2023/07/30 08:41:31;;;;;;;1.83;1.13;;;;;;;19.14;100.00;98677.31;5052740;28;20033;-74
2023/07/30 08:43:56;;;;;;;2.35;1.40;;;;;;;19.58;100.00;98674.31;5054389;28;20028;-71
2023/07/30 08:46:22;;;;;;;2.58;1.20;;;;;;;19.87;100.00;98661.06;5057892;28;20036;-72
2023/07/30 08:48:47;;;;;;;3.08;1.00;;;;;;;20.38;100.00;98641.16;5057323;28;20112;-71
2023/07/30 08:51:14;;;;;;;2.75;1.13;;;;;;;20.94;100.00;98633.03;5052459;28;20389;-71
2023/07/30 08:53:40;;;;;;;1.45;0.90;;;;;;;21.26;100.00;98601.63;5053751;28;20021;-71
2023/07/30 08:56:07;;;;;;;1.13;0.73;;;;;;;21.40;100.00;98598.03;5053107;28;20032;-71
2023/07/30 08:58:34;;;;;;;3.28;0.98;;;;;;;21.52;100.00;98610.69;5054829;28;20038;-72
2023/07/30 09:01:06;;;;;;;1.55;1.10;;;;;;;21.64;100.00;98613.94;5067008;28;20436;-72
2023/07/30 09:03:35;;;;;;;2.22;1.08;;;;;;;21.87;100.00;98598.72;5052359;28;20070;-71
2023/07/30 09:06:00;;;;;;;4.85;0.93;;;;;;;22.36;100.00;98586.09;5055478;28;20067;-72
2023/07/30 09:08:25;;;;;;;2.63;1.45;;;;;;;22.87;100.00;98575.50;5055122;28;20068;-71
2023/07/30 09:10:51;;;;;;;2.95;1.30;;;;;;;23.01;100.00;98567.38;5056397;28;20033;-71
2023/07/30 09:13:25;;;;;;;1.10;0.70;;;;;;;23.36;100.00;98563.41;5056927;28;20021;-71
2023/07/30 09:15:50;;;;;;;1.23;0.90;;;;;;;23.29;100.00;98564.88;5056481;28;20471;-72
2023/07/30 09:18:19;;;;;;;2.28;1.20;;;;;;;22.41;100.00;98564.81;5061026;28;20016;-71
2023/07/30 09:20:44;;;;;;;;;;;;;;;21.51;100.00;98582.34;5055914;28;20037;-72
2023/07/30 09:23:11;;;;;;;2.00;1.20;;;;;;;21.33;100.00;98580.16;5061763;28;19919;-71
2023/07/30 09:25:37;;;;;;;1.30;0.98;;;;;;;21.32;100.00;98575.75;5054150;28;20303;-71
2023/07/30 09:28:03;;;;;;;2.08;1.25;;;;;;;20.83;100.00;98581.88;5059220;28;20029;-71
2023/07/30 09:30:29;;;;;;;2.88;1.40;;;;;;;20.66;100.00;98604.97;5043033;28;20093;-71
2023/07/30 09:32:56;;;;;;;2.58;1.38;;;;;;;20.40;100.00;98595.03;5056648;28;20029;-71
2023/07/30 09:35:24;;;;;;;5.63;1.38;;;;;;;20.78;100.00;98600.03;5054552;28;20067;-71
2023/07/30 09:37:57;;;;;;;2.03;1.15;;;;;;;22.60;100.00;98588.94;5050902;28;20024;-71
2023/07/30 09:40:31;;;;;;;3.65;1.27;;;;;;;26.51;100.00;98562.16;5064979;28;20367;-71
2023/07/30 09:42:57;;;;;;;4.43;1.38;;;;;;;28.09;100.00;98559.09;5060402;28;20032;-71
2023/07/30 09:45:24;;;;;;;2.97;1.30;;;;;;;28.25;100.00;98556.66;5052881;28;21107;-72
2023/07/30 09:47:51;;;;;;;5.78;1.13;;;;;;;31.37;89.91;98550.59;5061327;28;20028;-73
2023/07/30 09:50:17;;;;;;;3.92;1.00;;;;;;;30.05;100.00;98566.03;5064583;28;20071;-72
2023/07/30 09:52:43;;;;;;;2.20;1.23;;;;;;;25.98;100.00;98574.75;5058077;28;20486;-71
2023/07/30 09:55:09;;;;;;;1.92;1.10;;;;;;;24.02;100.00;98577.56;5054217;28;20088;-71
2023/07/30 09:57:34;;;;;;;2.33;1.10;;;;;;;23.33;100.00;98569.53;5041814;28;20094;-73
2023/07/30 10:00:02;;;;;;;1.58;1.05;;;;;;;23.11;100.00;98580.25;5053278;28;20061;-72
2023/07/30 10:02:31;;;;;;;3.33;1.30;;;;;;;23.52;100.00;98577.06;5060451;28;20037;-71
2023/07/30 10:04:56;;;;;;;;;;;;;;;24.06;100.00;98578.63;5056469;28;20021;-71
2023/07/30 10:07:24;;;;;;;2.05;1.13;;;;;;;25.11;100.00;98565.34;5062459;28;19917;-71
2023/07/30 10:09:53;;;;;;;2.67;1.00;;;;;;;25.55;100.00;98572.28;5046234;28;20025;-72
2023/07/30 10:12:23;;;;;;;2.83;1.42;;;;;;;24.27;100.00;98568.91;5036009;28;20110;-71
2023/07/30 10:14:48;;;;;;;1.40;1.10;;;;;;;26.20;100.00;98584.28;5066019;28;20059;-71
2023/07/30 10:17:17;;;;;;;2.78;1.20;;;;;;;26.40;100.00;98575.47;5069321;28;20056;-71
2023/07/30 10:19:46;;;;;;;2.05;1.05;;;;;;;26.32;100.00;98590.09;5056220;28;20045;-71
2023/07/30 10:22:12;;;;;;;3.30;1.10;;;;;;;25.57;100.00;98583.06;5053921;28;20036;-71
2023/07/30 10:24:38;;;;;;;2.07;1.10;;;;;;;24.71;100.00;98578.78;5054686;28;20100;-71
2023/07/30 10:27:07;;;;;;;4.70;1.45;;;;;;;25.43;100.00;98587.78;5054358;28;20296;-71
2023/07/30 10:29:39;;;;;;;3.85;1.23;;;;;;;25.11;100.00;98587.50;5052792;28;20381;-72
2023/07/30 10:32:05;;;;;;;5.35;1.30;;;;;;;25.32;100.00;98592.69;5061574;28;20036;-71
2023/07/30 10:34:47;;;;;;;3.97;1.38;;;;;;;25.70;100.00;98587.81;5053124;28;20017;-71
2023/07/30 10:37:20;;;;;;;3.33;1.20;;;;;;;25.20;100.00;98589.59;5057587;28;21178;-71
2023/07/30 10:39:48;;;;;;;3.78;1.20;;;;;;;26.00;100.00;98580.00;5058258;28;20024;-72
2023/07/30 10:42:14;;;;;;;2.40;1.10;;;;;;;26.35;92.32;98581.13;5059865;28;20040;-72
2023/07/30 10:44:43;;;;;;;3.92;1.30;;;;;;;26.26;99.95;98579.44;5053728;28;20020;-71
2023/07/30 10:47:08;;;;;;;1.85;1.10;;;;;;;26.72;92.50;98573.63;5057934;28;20053;-73
2023/07/30 10:49:38;;;;;;;3.10;1.00;;;;;;;29.75;77.74;98580.00;5064011;28;20035;-71
2023/07/30 10:52:04;;;;;;;4.22;1.10;;;;;;;33.05;63.50;98564.25;5056330;28;20033;-71
2023/07/30 10:54:36;;;;;;;2.95;1.05;;;;;;;31.77;62.72;98581.53;5060561;28;20020;-72
2023/07/30 10:57:05;;;;;;;2.67;1.05;;;;;;;32.07;60.24;98576.53;5036421;28;20477;-71
2023/07/30 10:59:36;;;;;;;2.00;1.08;;;;;;;32.62;57.83;98578.97;5053196;28;20025;-71
2023/07/30 11:02:02;;;;;;;1.40;1.08;;;;;;;33.53;58.03;98586.72;5056493;28;20037;-72
2023/07/30 11:04:27;;;;;;;1.75;0.90;;;;;;;32.92;58.31;98571.06;5061370;28;20066;-72
2023/07/30 11:06:52;;;;;;;2.20;1.08;;;;;;;30.42;64.81;98586.69;5053831;28;20040;-72
2023/07/30 11:09:19;;;;;;;2.70;1.20;;;;;;;28.04;65.58;98575.94;5058581;28;20511;-72
2023/07/30 11:11:45;;;;;;;1.63;0.95;;;;;;;27.00;76.67;98582.63;5044812;28;20033;-71
2023/07/30 11:14:25;;;;;;;1.58;1.08;;;;;;;27.14;74.61;98590.06;5059225;28;20023;-72
2023/07/30 11:17:00;;;;;;;3.83;1.15;;;;;;;27.39;74.84;98592.19;5051754;28;20037;-71
2023/07/30 11:19:27;;;;;;;2.55;1.20;;;;;;;30.01;69.85;98601.38;5048402;28;20048;-73
2023/07/30 11:21:53;;;;;;;2.53;1.10;;;;;;;29.24;69.31;98581.84;5052960;28;20037;-72